Decoded Metar for OMAL (AL AIN in UNITED ARAB EMIRATES) (IATA:N/A) | Meteo·Mobile Aviation Weather
aviador You're here:

OMAL Decoded Metar

AL AIN in UNITED ARAB EMIRATES
Report Time2018-10-23 09:00:00
UTC Time2018-10-23 09:19:27
Flight Rules vfr VFR
Wind310° at 12 Gusting to 22 kt
W.Decomp.*RWY 01: 5.8 kt HW 10.5 kt LCW
W.Rank310° ranks 4
Current wind is above 310° avg. (8.9)
Visibility9999 m
Phenomena:N/A
Clouds:N/A
Expected CloudBase > 9,200 ft AGL from Temp-Dew spread
CeilingNone
Temp35°C (ISA +22)
Dew Point12°C (25% RH)
Heat Index33.7°C
AAT31.3°C
QNH1015 hPa
Density Alt3,455 ft
Elevation869 ft
Report Wrong Elevation
Raw Report
METAR OMAL 230900Z 31012G22KT 270V360 CAVOK 35/12 Q1015 NOSIG=

Extra information for OMAL:More info

Metar Taf Metar & Taf Last 4 Metars F.Rules Stats Wind Profile Meteogram Temp Stats Airport Information Weather charts Add Link Nearby VenuesMetar ALERT Operation Metar Decoded Social comments